createdAt,value
2017-05-05T00:00:13.013Z,71.00
2017-05-05T00:02:40.706Z,71.30
2017-05-05T00:05:08.363Z,71.60
2017-05-05T00:07:35.921Z,71.50
2017-05-05T00:10:03.467Z,70.90
2017-05-05T00:12:30.929Z,70.90
2017-05-05T00:14:59.192Z,71.30
2017-05-05T00:17:26.778Z,70.40
2017-05-05T00:19:54.314Z,70.40
2017-05-05T00:22:21.750Z,69.80
2017-05-05T00:24:49.317Z,69.80
2017-05-05T00:27:16.821Z,69.50
2017-05-05T00:29:44.425Z,69.50
2017-05-05T00:32:11.811Z,69.70
2017-05-05T00:34:39.445Z,68.80
2017-05-05T00:37:07.039Z,68.90
2017-05-05T00:39:34.569Z,67.80
2017-05-05T00:42:02.774Z,68.70
2017-05-05T00:44:30.405Z,68.80
2017-05-05T00:46:57.761Z,68.90
2017-05-05T00:49:25.297Z,69.50
2017-05-05T00:51:52.773Z,68.90
2017-05-05T00:54:20.468Z,67.90
2017-05-05T00:56:47.958Z,68.30
2017-05-05T00:59:15.461Z,67.20
2017-05-05T01:01:42.994Z,66.10
2017-05-05T01:04:10.570Z,67.70
2017-05-05T01:06:38.634Z,68.20
2017-05-05T01:09:06.226Z,68.80
2017-05-05T01:11:33.635Z,69.20
2017-05-05T01:14:01.018Z,69.20
2017-05-05T01:16:28.448Z,69.90
2017-05-05T01:18:56.047Z,70.10
2017-05-05T01:21:24.283Z,69.20
2017-05-05T01:23:51.647Z,68.50
2017-05-05T01:26:19.111Z,68.80
2017-05-05T01:28:46.767Z,68.80
2017-05-05T01:31:14.347Z,70.00
2017-05-05T01:33:42.490Z,70.60
2017-05-05T01:36:10.063Z,71.20
2017-05-05T01:38:37.515Z,69.70
2017-05-05T01:41:05.698Z,70.20
2017-05-05T01:43:33.139Z,69.10
2017-05-05T01:46:01.434Z,67.80
2017-05-05T01:48:28.979Z,68.70
2017-05-05T01:51:03.632Z,68.70
2017-05-05T01:53:31.158Z,68.80
2017-05-05T01:55:58.723Z,68.80
2017-05-05T01:58:26.689Z,69.50
2017-05-05T02:00:54.270Z,68.80
2017-05-05T02:03:21.785Z,69.00
2017-05-05T02:05:49.435Z,68.70
2017-05-05T02:08:16.854Z,69.40
2017-05-05T02:10:44.309Z,69.30
2017-05-05T02:13:11.813Z,69.00
2017-05-05T02:15:39.950Z,68.70
2017-05-05T02:18:07.545Z,69.80
2017-05-05T02:20:34.990Z,69.10
2017-05-05T02:23:02.321Z,68.70
2017-05-05T02:25:37.369Z,68.70
2017-05-05T02:28:04.859Z,67.20
2017-05-05T02:30:32.295Z,67.30
2017-05-05T02:32:59.875Z,68.10
2017-05-05T02:35:27.905Z,67.40
2017-05-05T02:37:55.405Z,67.50
2017-05-05T02:40:23.557Z,68.70
2017-05-05T02:42:51.007Z,69.10
2017-05-05T02:45:18.527Z,69.50
2017-05-05T02:47:46.025Z,69.20
2017-05-05T02:50:13.694Z,67.10
2017-05-05T02:52:41.233Z,65.90
2017-05-05T02:55:08.943Z,65.80
2017-05-05T02:57:36.463Z,65.90
2017-05-05T03:00:04.743Z,66.80
2017-05-05T03:02:32.298Z,67.90
2017-05-05T03:04:59.650Z,68.10
2017-05-05T03:07:27.946Z,68.60
2017-05-05T03:09:55.330Z,67.90
2017-05-05T03:12:22.847Z,68.20
2017-05-05T03:14:50.375Z,67.60
2017-05-05T03:17:17.959Z,68.20
2017-05-05T03:19:45.604Z,67.90
2017-05-05T03:22:13.307Z,68.10
2017-05-05T03:24:40.725Z,67.90
2017-05-05T03:27:08.303Z,68.20
2017-05-05T03:29:36.460Z,66.70
2017-05-05T03:32:04.033Z,65.90
2017-05-05T03:34:31.476Z,65.80
2017-05-05T03:36:59.691Z,64.70
2017-05-05T03:39:27.123Z,65.70
2017-05-05T03:41:54.539Z,65.20
2017-05-05T03:44:21.950Z,64.50
2017-05-05T03:46:50.200Z,64.40
2017-05-05T03:49:17.654Z,64.50
2017-05-05T03:51:45.803Z,64.50
2017-05-05T03:54:13.128Z,65.20
2017-05-05T03:56:40.454Z,65.20
2017-05-05T03:59:07.806Z,66.30
2017-05-05T04:01:36.094Z,65.80
2017-05-05T04:04:03.562Z,65.90
2017-05-05T04:06:30.817Z,64.50
2017-05-05T04:08:58.127Z,64.40
2017-05-05T04:11:25.694Z,64.90
2017-05-05T04:13:53.027Z,65.60
2017-05-05T04:16:20.434Z,64.10
2017-05-05T04:18:47.850Z,65.90
2017-05-05T04:21:15.271Z,67.00
2017-05-05T04:23:42.643Z,65.90
2017-05-05T04:26:09.917Z,66.20
2017-05-05T04:28:37.303Z,66.50
2017-05-05T04:31:04.670Z,66.20
2017-05-05T04:33:32.002Z,65.80
2017-05-05T04:36:00.072Z,66.00
2017-05-05T04:38:28.145Z,65.50
2017-05-05T04:40:56.207Z,64.10
2017-05-05T04:43:23.640Z,64.50
2017-05-05T04:45:51.050Z,65.30
2017-05-05T04:48:19.221Z,65.50
2017-05-05T04:50:46.567Z,66.40
2017-05-05T04:53:14.646Z,66.10
2017-05-05T04:55:41.905Z,65.90
2017-05-05T04:58:09.441Z,66.70
2017-05-05T05:00:37.518Z,66.40
2017-05-05T05:03:04.977Z,65.50
2017-05-05T05:05:32.290Z,65.30
2017-05-05T05:07:59.786Z,64.60
2017-05-05T05:10:27.181Z,66.00
2017-05-05T05:12:54.834Z,64.30
2017-05-05T05:15:22.409Z,64.00
2017-05-05T05:17:50.734Z,64.00
2017-05-05T05:20:18.228Z,63.40
2017-05-05T05:22:45.683Z,64.40
2017-05-05T05:25:13.365Z,65.40
2017-05-05T05:27:40.873Z,66.20
2017-05-05T05:30:08.230Z,65.20
2017-05-05T05:32:35.822Z,64.50
2017-05-05T05:35:03.167Z,63.30
2017-05-05T05:37:30.546Z,64.50
2017-05-05T05:39:57.917Z,64.50
2017-05-05T05:42:25.518Z,64.20
2017-05-05T05:44:53.091Z,64.30
2017-05-05T05:47:20.764Z,65.40
2017-05-05T05:49:48.309Z,65.80
2017-05-05T05:52:15.881Z,66.90
2017-05-05T05:54:43.301Z,66.00
2017-05-05T05:57:10.778Z,66.90
2017-05-05T05:59:38.162Z,66.80
2017-05-05T06:02:05.708Z,66.40
2017-05-05T06:04:33.298Z,65.70
2017-05-05T06:07:00.685Z,65.10
2017-05-05T06:09:28.185Z,64.40
2017-05-05T06:11:55.597Z,65.00
2017-05-05T06:14:22.870Z,64.60
2017-05-05T06:16:50.268Z,64.50
2017-05-05T06:19:17.833Z,63.30
2017-05-05T06:21:45.368Z,64.30
2017-05-05T06:24:12.789Z,64.40
2017-05-05T06:26:41.046Z,64.40
2017-05-05T06:29:08.626Z,63.40
2017-05-05T06:31:36.662Z,64.40
2017-05-05T06:34:04.230Z,64.50
2017-05-05T06:36:32.367Z,64.70
2017-05-05T06:39:00.079Z,65.70
2017-05-05T06:41:27.634Z,65.50
2017-05-05T06:43:55.199Z,64.90
2017-05-05T06:46:22.734Z,65.40
2017-05-05T06:48:50.417Z,64.50
2017-05-05T06:51:17.997Z,64.40
2017-05-05T06:53:45.434Z,65.70
2017-05-05T06:56:13.590Z,64.20
2017-05-05T06:58:41.321Z,64.50
2017-05-05T07:01:08.909Z,63.60
2017-05-05T07:03:36.601Z,61.20
2017-05-05T07:06:03.958Z,63.80
2017-05-05T07:08:31.506Z,62.20
2017-05-05T07:10:59.031Z,63.10
2017-05-05T07:13:27.374Z,64.50
2017-05-05T07:15:54.774Z,63.40
2017-05-05T07:18:22.309Z,64.40
2017-05-05T07:20:49.637Z,64.50
2017-05-05T07:23:17.079Z,64.80
2017-05-05T07:25:44.698Z,63.80
2017-05-05T07:28:12.246Z,64.40
2017-05-05T07:30:39.829Z,64.00
2017-05-05T07:33:08.385Z,64.30
2017-05-05T07:35:35.759Z,62.30
2017-05-05T07:38:03.305Z,63.50
2017-05-05T07:40:30.931Z,64.00
2017-05-05T07:42:58.321Z,63.50
2017-05-05T07:45:25.965Z,62.00
2017-05-05T07:47:53.549Z,62.00
2017-05-05T07:50:21.043Z,60.30
2017-05-05T07:52:48.597Z,62.20
2017-05-05T07:55:16.006Z,62.90
2017-05-05T07:57:44.299Z,60.80
2017-05-05T08:00:11.742Z,60.10
2017-05-05T08:02:39.814Z,59.00
2017-05-05T08:05:07.291Z,59.70
2017-05-05T08:07:34.857Z,60.30
2017-05-05T08:10:02.997Z,60.50
2017-05-05T08:12:30.577Z,59.10
2017-05-05T08:14:58.441Z,60.20
2017-05-05T08:17:25.953Z,60.30
2017-05-05T08:19:53.458Z,59.70
2017-05-05T08:22:21.050Z,59.70
2017-05-05T08:24:48.553Z,60.20
2017-05-05T08:27:16.142Z,59.20
2017-05-05T08:29:43.790Z,59.30
2017-05-05T08:32:11.253Z,60.20
2017-05-05T08:34:38.713Z,60.00
2017-05-05T08:37:06.138Z,60.20
2017-05-05T08:39:33.729Z,62.60
2017-05-05T08:42:01.349Z,63.40
2017-05-05T08:44:29.069Z,63.20
2017-05-05T08:46:56.677Z,62.90
2017-05-05T08:49:24.265Z,60.30
2017-05-05T08:51:51.785Z,60.90
2017-05-05T08:54:19.269Z,60.60
2017-05-05T08:56:46.706Z,59.10
2017-05-05T08:59:14.398Z,59.40
2017-05-05T09:01:41.931Z,58.90
2017-05-05T09:04:10.010Z,58.10
2017-05-05T09:06:37.525Z,57.90
2017-05-05T09:09:04.888Z,58.50
2017-05-05T09:11:32.252Z,59.30
2017-05-05T09:13:59.573Z,59.10
2017-05-05T09:16:26.966Z,58.20
2017-05-05T09:18:54.518Z,58.90
2017-05-05T09:21:22.098Z,58.90
2017-05-05T09:23:49.518Z,60.10
2017-05-05T09:26:17.129Z,60.40
2017-05-05T09:28:44.681Z,60.70
2017-05-05T09:31:12.337Z,60.90
2017-05-05T09:33:39.971Z,60.80
2017-05-05T09:36:07.545Z,60.70
2017-05-05T09:38:35.091Z,60.30
2017-05-05T09:41:03.348Z,61.80
2017-05-05T09:43:30.940Z,61.60
2017-05-05T09:45:58.539Z,61.50
2017-05-05T09:48:26.661Z,61.20
2017-05-05T09:50:54.223Z,60.00
2017-05-05T09:53:21.666Z,59.70
2017-05-05T09:55:49.857Z,61.00
2017-05-05T09:58:17.394Z,60.60
2017-05-05T10:00:44.977Z,61.40
2017-05-05T10:03:12.577Z,61.80
2017-05-05T10:05:40.586Z,61.20
2017-05-05T10:08:08.154Z,59.70
2017-05-05T10:10:35.818Z,62.80
2017-05-05T10:13:03.581Z,63.50
2017-05-05T10:15:31.150Z,61.40
2017-05-05T10:17:58.594Z,61.60
2017-05-05T10:20:26.273Z,60.70
2017-05-05T10:22:53.733Z,59.70
2017-05-05T10:25:21.249Z,62.50
2017-05-05T10:27:49.083Z,63.30
2017-05-05T10:30:16.589Z,63.80
2017-05-05T10:32:44.059Z,64.50
2017-05-05T10:35:11.625Z,64.80
2017-05-05T10:37:39.091Z,64.50
2017-05-05T10:40:06.700Z,65.10
2017-05-05T10:42:34.377Z,64.60
2017-05-05T10:45:02.021Z,62.30
2017-05-05T10:47:29.657Z,62.40
2017-05-05T10:49:57.346Z,62.90
2017-05-05T10:52:24.635Z,62.70
2017-05-05T10:54:51.952Z,61.20
2017-05-05T10:57:19.205Z,61.30
2017-05-05T10:59:46.790Z,62.00
2017-05-05T11:02:14.353Z,61.70
2017-05-05T11:04:41.940Z,60.70
2017-05-05T11:07:09.565Z,59.20
2017-05-05T11:09:37.236Z,59.20
2017-05-05T11:12:04.789Z,59.60
2017-05-05T11:14:32.922Z,60.00
2017-05-05T11:17:00.494Z,59.10
2017-05-05T11:19:27.941Z,59.10
2017-05-05T11:21:55.507Z,60.00
2017-05-05T11:24:23.084Z,58.70
2017-05-05T11:26:50.526Z,58.50
2017-05-05T11:29:18.084Z,59.10
2017-05-05T11:31:45.629Z,59.20
2017-05-05T11:34:13.209Z,59.30
2017-05-05T11:36:40.440Z,59.50
2017-05-05T11:39:07.916Z,58.20
2017-05-05T11:41:35.466Z,57.40
2017-05-05T11:44:02.832Z,58.30
2017-05-05T11:46:30.361Z,59.30
2017-05-05T11:48:57.821Z,57.70
2017-05-05T11:51:25.433Z,57.50
2017-05-05T11:53:52.957Z,57.40
2017-05-05T11:56:20.421Z,57.60
2017-05-05T11:58:48.665Z,57.50
2017-05-05T12:01:16.156Z,57.10
2017-05-05T12:03:43.591Z,57.00
2017-05-05T12:06:11.148Z,57.30
2017-05-05T12:08:38.599Z,56.60
2017-05-05T12:11:06.151Z,57.60
2017-05-05T12:13:33.690Z,56.40
2017-05-05T12:16:01.397Z,57.40
2017-05-05T12:18:29.041Z,55.50
2017-05-05T12:20:56.679Z,55.50
2017-05-05T12:23:24.224Z,55.90
2017-05-05T12:25:51.817Z,55.30
2017-05-05T12:28:19.481Z,56.00
2017-05-05T12:30:47.053Z,55.80
2017-05-05T12:33:14.494Z,58.00
2017-05-05T12:35:42.064Z,56.10
2017-05-05T12:38:09.629Z,56.50
2017-05-05T12:40:37.049Z,58.90
2017-05-05T12:43:04.602Z,57.50
2017-05-05T12:45:32.009Z,57.50
2017-05-05T12:47:59.687Z,56.00
2017-05-05T12:50:27.294Z,56.60
2017-05-05T12:52:54.956Z,56.70
2017-05-05T12:55:22.401Z,55.60
2017-05-05T12:57:50.076Z,54.60
2017-05-05T13:00:17.742Z,54.30
2017-05-05T13:02:45.435Z,53.80
2017-05-05T13:05:13.542Z,54.20
2017-05-05T13:07:41.146Z,55.30
2017-05-05T13:10:08.701Z,54.80
2017-05-05T13:12:36.128Z,54.60
2017-05-05T13:15:03.758Z,54.30
2017-05-05T13:20:00.421Z,53.60
2017-05-05T13:22:27.883Z,53.80
2017-05-05T13:24:55.541Z,54.80
2017-05-05T13:27:23.133Z,53.80
2017-05-05T13:29:50.751Z,54.70
2017-05-05T13:32:18.386Z,54.50
2017-05-05T13:34:45.905Z,53.50
2017-05-05T13:37:13.477Z,52.90
2017-05-05T13:39:41.071Z,53.20
2017-05-05T13:42:08.676Z,54.40
2017-05-05T13:44:36.248Z,54.70
2017-05-05T13:47:18.747Z,56.10
2017-05-05T13:49:46.409Z,55.50
2017-05-05T13:52:14.071Z,55.10
2017-05-05T13:54:41.829Z,54.50
2017-05-05T13:57:09.365Z,55.90
2017-05-05T13:59:36.997Z,54.40
2017-05-05T14:02:04.437Z,54.40
2017-05-05T14:04:31.909Z,54.80
2017-05-05T14:06:59.301Z,54.90
2017-05-05T14:09:26.888Z,55.70
2017-05-05T14:11:54.578Z,54.50
2017-05-05T14:14:22.019Z,54.30
2017-05-05T14:16:49.526Z,55.40
2017-05-05T14:19:17.061Z,56.80
2017-05-05T14:21:44.410Z,56.30
2017-05-05T14:24:11.901Z,57.10
2017-05-05T14:26:39.337Z,56.40
2017-05-05T14:29:06.994Z,57.10
2017-05-05T14:31:34.713Z,57.00
2017-05-05T14:34:02.238Z,56.20
2017-05-05T14:36:29.698Z,55.80
2017-05-05T14:38:57.137Z,54.50
2017-05-05T14:41:24.614Z,54.60
2017-05-05T14:43:52.078Z,54.70
2017-05-05T14:46:19.755Z,54.70
2017-05-05T14:48:47.326Z,54.80
2017-05-05T14:51:14.938Z,54.60
2017-05-05T14:53:42.433Z,53.70
2017-05-05T14:56:09.903Z,54.50
2017-05-05T14:58:37.334Z,54.80
2017-05-05T15:01:04.546Z,54.20
2017-05-05T15:03:32.008Z,54.50
2017-05-05T15:05:59.669Z,53.10
2017-05-05T15:08:27.444Z,52.50
2017-05-05T15:10:54.980Z,53.60
2017-05-05T15:13:22.365Z,52.90
2017-05-05T15:15:49.660Z,54.40
2017-05-05T15:18:17.375Z,54.90
2017-05-05T15:20:45.026Z,53.60
2017-05-05T15:23:13.073Z,52.30
2017-05-05T15:25:40.902Z,52.10
2017-05-05T15:28:08.630Z,52.90
2017-05-05T15:30:36.006Z,52.30
2017-05-05T15:33:03.453Z,52.60
2017-05-05T15:35:30.895Z,52.60
2017-05-05T15:37:58.386Z,52.40
2017-05-05T15:40:25.977Z,51.50
2017-05-05T15:42:53.393Z,51.50
2017-05-05T15:45:20.877Z,51.60
2017-05-05T15:47:48.389Z,51.90
2017-05-05T15:50:15.906Z,52.40
2017-05-05T15:52:43.374Z,51.40
2017-05-05T15:55:10.949Z,52.90
2017-05-05T15:57:38.721Z,52.90
2017-05-05T16:00:06.314Z,52.30
2017-05-05T16:02:34.413Z,52.10
2017-05-05T16:05:01.967Z,50.70
2017-05-05T16:07:29.373Z,51.40
2017-05-05T16:09:56.917Z,51.40
2017-05-05T16:12:24.333Z,50.30
2017-05-05T16:14:51.978Z,50.40
2017-05-05T16:17:19.370Z,49.00
2017-05-05T16:19:46.722Z,50.30
2017-05-05T16:22:14.669Z,51.20
2017-05-05T16:24:42.361Z,50.70
2017-05-05T16:27:09.801Z,52.10
2017-05-05T16:29:37.601Z,52.30
2017-05-05T16:32:06.444Z,51.80
2017-05-05T16:34:34.902Z,52.40
2017-05-05T16:37:03.628Z,52.80
2017-05-05T16:39:31.757Z,53.40
2017-05-05T16:42:00.645Z,52.20
2017-05-05T16:44:28.939Z,51.10
2017-05-05T16:46:57.611Z,51.80
2017-05-05T16:49:25.469Z,53.00
2017-05-05T16:51:54.053Z,51.00
2017-05-05T16:54:21.603Z,51.20
2017-05-05T16:56:49.694Z,51.70
2017-05-05T16:59:18.167Z,51.90
2017-05-05T17:01:46.781Z,51.90
2017-05-05T17:04:15.944Z,52.60
2017-05-05T17:06:45.269Z,52.20
2017-05-05T17:09:13.827Z,53.00
2017-05-05T17:11:42.406Z,53.40
2017-05-05T17:14:10.369Z,52.60
2017-05-05T17:16:37.898Z,53.60
2017-05-05T17:19:05.312Z,52.70
2017-05-05T17:21:32.897Z,52.70
2017-05-05T17:24:00.433Z,53.10
2017-05-05T17:26:28.058Z,52.70
2017-05-05T17:28:56.024Z,53.40
2017-05-05T17:31:23.535Z,52.70
2017-05-05T17:33:51.190Z,51.60
2017-05-05T17:36:18.765Z,52.90
2017-05-05T17:38:46.389Z,53.70
2017-05-05T17:41:14.114Z,54.30
2017-05-05T17:43:41.613Z,54.40
2017-05-05T17:46:09.689Z,54.80
2017-05-05T17:48:37.361Z,55.00
2017-05-05T17:51:05.009Z,55.70
2017-05-05T17:53:32.631Z,55.20
2017-05-05T17:56:00.863Z,55.50
2017-05-05T17:58:28.425Z,55.30
2017-05-05T18:00:55.969Z,55.90
2017-05-05T18:03:23.424Z,55.60
2017-05-05T18:05:51.024Z,56.00
2017-05-05T18:08:18.439Z,55.80
2017-05-05T18:10:45.894Z,55.70
2017-05-05T18:13:13.517Z,55.50
2017-05-05T18:15:40.956Z,56.30
2017-05-05T18:18:09.065Z,56.70
2017-05-05T18:20:36.534Z,56.80
2017-05-05T18:23:04.090Z,57.10
2017-05-05T18:25:31.749Z,57.20
2017-05-05T18:27:59.393Z,58.00
2017-05-05T18:30:26.870Z,58.10
2017-05-05T18:32:54.333Z,58.30
2017-05-05T18:35:22.001Z,58.50
2017-05-05T18:37:49.646Z,57.60
2017-05-05T18:40:17.214Z,58.40
2017-05-05T18:42:44.682Z,57.70
2017-05-05T18:45:13.822Z,58.10
2017-05-05T18:47:41.746Z,58.60
2017-05-05T18:50:09.443Z,57.80
2017-05-05T18:52:37.497Z,58.40
2017-05-05T18:55:05.098Z,58.70
2017-05-05T18:57:32.692Z,58.60
2017-05-05T19:00:00.521Z,58.50
2017-05-05T19:02:27.898Z,58.50
2017-05-05T19:04:55.425Z,59.20
2017-05-05T19:07:22.794Z,59.30
2017-05-05T19:09:50.214Z,58.60
2017-05-05T19:12:18.369Z,58.80
2017-05-05T19:14:46.058Z,59.10
2017-05-05T19:17:13.557Z,59.30
2017-05-05T19:19:41.045Z,59.40
2017-05-05T19:22:08.598Z,59.30
2017-05-05T19:24:35.947Z,58.90
2017-05-05T19:27:03.381Z,58.20
2017-05-05T19:29:30.909Z,58.70
2017-05-05T19:31:58.499Z,58.50
2017-05-05T19:34:26.301Z,59.20
2017-05-05T19:36:53.805Z,59.40
2017-05-05T19:39:21.558Z,59.00
2017-05-05T19:41:49.134Z,59.50
2017-05-05T19:44:16.736Z,60.50
2017-05-05T19:46:44.198Z,61.40
2017-05-05T19:49:11.791Z,61.60
2017-05-05T19:51:39.518Z,61.00
2017-05-05T19:54:06.982Z,61.50
2017-05-05T19:56:34.497Z,62.00
2017-05-05T19:59:02.137Z,61.70
2017-05-05T20:01:36.145Z,63.20
2017-05-05T20:04:04.366Z,62.30
2017-05-05T20:06:31.922Z,61.80
2017-05-05T20:08:59.413Z,61.40
2017-05-05T20:11:26.877Z,61.20
2017-05-05T20:13:55.315Z,62.10
2017-05-05T20:16:22.774Z,61.70
2017-05-05T20:18:50.896Z,61.80
2017-05-05T20:21:18.521Z,60.50
2017-05-05T20:23:45.858Z,61.50
2017-05-05T20:26:13.369Z,63.60
2017-05-05T20:28:40.881Z,63.20
2017-05-05T20:31:08.278Z,61.50
2017-05-05T20:33:35.569Z,63.00
2017-05-05T20:36:03.126Z,60.80
2017-05-05T20:38:30.661Z,61.20
2017-05-05T20:40:58.089Z,60.30
2017-05-05T20:43:25.647Z,59.80
2017-05-05T20:45:53.215Z,59.10
2017-05-05T20:48:21.473Z,60.30
2017-05-05T20:50:48.727Z,60.30
2017-05-05T20:53:16.280Z,60.90
2017-05-05T20:55:43.871Z,60.10
2017-05-05T20:58:11.298Z,60.80
2017-05-05T21:00:38.903Z,60.20
2017-05-05T21:03:06.353Z,61.50
2017-05-05T21:05:33.922Z,60.20
2017-05-05T21:08:02.185Z,59.90
2017-05-05T21:10:29.741Z,60.80
2017-05-05T21:12:57.265Z,60.20
2017-05-05T21:15:24.634Z,61.40
2017-05-05T21:17:52.266Z,63.20
2017-05-05T21:20:19.843Z,62.60
2017-05-05T21:22:47.424Z,63.20
2017-05-05T21:25:14.927Z,63.90
2017-05-05T21:27:42.489Z,63.70
2017-05-05T21:30:10.001Z,64.30
2017-05-05T21:32:37.238Z,64.70
2017-05-05T21:35:04.873Z,65.30
2017-05-05T21:37:32.474Z,64.70
2017-05-05T21:40:01.077Z,64.10
2017-05-05T21:42:28.818Z,64.00
2017-05-05T21:44:56.190Z,63.70
2017-05-05T21:47:23.623Z,64.00
2017-05-05T21:49:51.103Z,63.80
2017-05-05T21:52:18.594Z,63.10
2017-05-05T21:54:46.305Z,64.80
2017-05-05T21:57:13.741Z,64.00
2017-05-05T21:59:41.130Z,65.80
2017-05-05T22:02:08.649Z,65.30
2017-05-05T22:04:36.090Z,64.40
2017-05-05T22:07:03.726Z,64.30
2017-05-05T22:09:31.153Z,64.30
2017-05-05T22:11:58.596Z,65.30
2017-05-05T22:14:26.128Z,66.50
2017-05-05T22:16:53.673Z,64.80
2017-05-05T22:19:21.271Z,66.10
2017-05-05T22:21:48.625Z,65.60
2017-05-05T22:24:16.217Z,64.40
2017-05-05T22:26:43.699Z,65.50
2017-05-05T22:29:11.280Z,65.10
2017-05-05T22:31:38.665Z,64.20
2017-05-05T22:34:05.912Z,65.50
2017-05-05T22:36:33.451Z,66.00
2017-05-05T22:39:00.923Z,67.10
2017-05-05T22:41:28.375Z,66.60
2017-05-05T22:43:55.821Z,65.70
2017-05-05T22:46:23.251Z,65.20
2017-05-05T22:48:50.810Z,65.60
2017-05-05T22:51:18.415Z,64.30
2017-05-05T22:53:45.929Z,63.30
2017-05-05T22:56:13.444Z,64.10
2017-05-05T22:58:40.932Z,62.90
2017-05-05T23:01:08.508Z,63.40
2017-05-05T23:03:36.140Z,63.70
2017-05-05T23:06:03.773Z,64.60
2017-05-05T23:08:31.179Z,64.80
2017-05-05T23:10:58.655Z,66.50
2017-05-05T23:13:26.067Z,66.50
2017-05-05T23:15:53.492Z,66.00
2017-05-05T23:18:20.874Z,65.00
2017-05-05T23:20:48.245Z,66.50
2017-05-05T23:23:15.835Z,65.80
2017-05-05T23:25:43.967Z,64.90
2017-05-05T23:28:11.431Z,64.50
2017-05-05T23:30:38.966Z,62.90
2017-05-05T23:33:06.423Z,62.70
2017-05-05T23:35:40.354Z,61.30
2017-05-05T23:38:08.048Z,59.60
2017-05-05T23:40:35.472Z,59.20
2017-05-05T23:43:02.907Z,59.60
2017-05-05T23:45:30.643Z,59.30
2017-05-05T23:47:58.092Z,58.90
2017-05-05T23:50:25.723Z,58.80
2017-05-05T23:52:53.174Z,59.30
2017-05-05T23:55:20.634Z,58.70
2017-05-05T23:57:48.264Z,59.40
